Tiempo atmosférico en la estación meteorológica de Calasparra, Murcia (394 m.)

Fecha
DESCASC
Temp. máxima en grados centígrados (hora)
DESCASC
Temp. mínima en grados centígrados (hora)
DESCASC
Temp. media en grados centígrados
DESCASC
Racha de viento máxima en m/sg (hora)
DESCASC
Velocidad máxima media en intervalos de 10 minutos(hora)
DESCASC
Precipitaciones diarias en mm
DESCASC
Precipitaciones de 00:00 a 06:00 en mm
DESCASC
Precipitaciones de 06:00 a 12:00 en mm
DESCASC
Precipitaciones de 12:00 a 18:00 en mm
DESCASC
Precipitaciones de 18:00 a 24:00 en mm
DESCASC
17-08-2017 34.6 (17:20) 22.2 (07:00) 28.4 10.28 (19:50) 6.11 (18:40) 0 0 0 0 0
16-08-2017 35.8 (16:00) 20.6 (07:30) 28.2 10.28 (18:20) 5.83 (18:40) 0 0 0 0 0
15-08-2017 34.7 (15:40) 20 (00:00) 27.4 9.72 (21:40) 5.83 (19:00) 0 0 0 0 0
14-08-2017 31 (17:00) 18.1 (07:50) 24.6 12.78 (15:50) 5.83 (16:20) 0 0 0 0 0
13-08-2017 30.2 (15:30) 16.9 (00:00) 23.6 10.83 (16:40) 6.11 (17:30) 0 0 0 0 0
12-08-2017 30.2 (16:20) 17.8 (00:00) 24 10.83 (19:20) 7.22 (19:20) 0 0 0 0 0
11-08-2017 30.7 (16:20) 19.6 (00:00) 25.2 10 (19:50) 6.39 (21:10) 0 0 0 0 0
10-08-2017 27.4 (16:30) 19.5 (00:00) 23.4 10 (02:00) 5.56 (21:00) 0 0 0 0 0
09-08-2017 33.7 (16:50) 22.3 (00:00) 28 13.33 (18:50) 7.5 (19:50) 0.2 0 0 0 0.2
08-08-2017 39.9 (16:30) 21.8 (00:00) 30.9 8.89 (18:20) 5 (19:20) 0 0 0 0 0
07-08-2017 35.3 (17:10) 23.1 (00:00) 29.2 12.5 (18:30) 7.5 (18:30) 0.4 0 0 0.4 0
06-08-2017 34.5 (16:10) 22.1 (00:00) 28.3 11.11 (14:30) 6.94 (18:50) 0 0 0 0 0
05-08-2017 37.7 (17:10) 22.7 (00:00) 30.2 11.94 (17:40) 7.78 (18:10) 0 0 0 0 0
04-08-2017 40.1 (14:20) 24.1 (00:00) 32.1 10.83 (19:20) 6.39 (18:30) 0 0 0 0 0
03-08-2017 40.4 (18:10) 22.8 (00:00) 31.6 9.17 (21:10) 5.28 (20:30) 0 0 0 0 0
02-08-2017 34.3 (18:30) 23.9 (00:00) 29.1 12.22 (00:30) 5.83 (00:30) 0.2 0.2 0 0 0
01-08-2017 35.5 (17:30) 22.4 (00:00) 28.9 14.17 (23:00) 8.89 (22:50) 0 0 0 0 0
31-07-2017 35.3 (15:50) 21 (00:00) 28.1 12.78 (20:50) 7.22 (20:50) 0 0 0 0 0
30-07-2017 39.9 (14:40) 20.8 (00:00) 30.4 11.94 (18:10) 7.78 (18:00) 0 0 0 0 0
29-07-2017 37.3 (15:50) 20.7 (00:00) 29 11.39 (18:20) 6.67 (18:50) 0 0 0 0 0
28-07-2017 38.6 (14:30) 20.4 (00:00) 29.5 11.39 (17:50) 7.22 (20:00) 0 0 0 0 0
27-07-2017 36.4 (17:20) 21 (00:00) 28.7 10 (18:50) 6.39 (19:20) 0 0 0 0 0
26-07-2017 36.7 (18:40) 22.2 (00:00) 29.5 11.39 (19:10) 7.22 (19:10) 0 0 0 0 0
25-07-2017 31.9 (14:50) 19.9 (00:00) 25.9 10.28 (20:30) 6.39 (19:20) 0 0 0 0 0
24-07-2017 37.5 (15:30) 18.6 (00:00) 28.1 11.39 (19:10) 6.67 (19:20) 0 0 0 0 0
23-07-2017 35.1 (17:10) 21.2 (00:00) 28.1 10 (20:50) 6.11 (20:50) 0 0 0 0 0
22-07-2017 34.6 (16:20) 21 (00:00) 27.8 9.72 (21:10) 5.83 (20:50) 0 0 0 0 0
21-07-2017 34.3 (17:20) 21.7 (00:00) 28 10.56 (18:50) 6.39 (18:50) 0 0 0 0 0
20-07-2017 35.9 (15:50) 20.9 (00:00) 28.4 13.61 (16:20) 8.33 (16:20) 0 0 0 0 0
19-07-2017 36 (16:40) 21.2 (00:00) 28.6 9.72 (18:50) 6.11 (18:50) 0 0 0 0 0

Gráficas

Temp. máximas Temp. mínimas Temp. medias Precipitaciones Rachas de viento máximas Velocidades máximas media en intervalos de 10 minutos

Datos horarios

Fecha y hora oficial Temperatura (ºC) Velocidad del viento (km/h) Dirección del viento Racha (km/h) Dirección de racha Precipitación (mm) Presión (hPa) Tendencia (hPa) Humedad (%)
2017-08-17 23:00:00 26.7 14 Sudeste 22 Sudeste 0 -- -- 59
2017-08-17 22:00:00 28.1 13 Sudeste 22 Sudeste 0 -- -- 55
2017-08-17 21:00:00 29.7 13 Sudeste 33 Sudeste 0 -- -- 50
2017-08-17 20:00:00 31.4 19 Sudeste 37 Sudeste 0 -- -- 47
2017-08-17 19:00:00 33.3 22 Sudeste 34 Sudeste 0 -- -- 40
2017-08-17 18:00:00 34.2 19 Sudeste 37 Sudeste 0 -- -- 38
2017-08-17 17:00:00 34.3 17 Sudeste 33 Este 0 -- -- 38
2017-08-17 16:00:00 34 17 Sudeste 33 Sudeste 0 -- -- 40
2017-08-17 15:00:00 33.1 16 Sudeste 29 Sudeste 0 -- -- 42
2017-08-17 14:00:00 32.5 14 Sudeste 29 Sudeste 0 -- -- 38
2017-08-17 13:00:00 30.7 10 Sudeste 18 Sudeste 0 -- -- 50
2017-08-17 12:00:00 28.4 6 Este 15 Este 0 -- -- 64
2017-08-17 11:00:00 26.9 6 Nordeste 12 Este 0 -- -- 69
2017-08-17 10:00:00 25.1 4 Nordeste 8 Este 0 -- -- 74
2017-08-17 09:00:00 23.3 2 Sur 6 Sudeste 0 -- -- 79
2017-08-17 08:00:00 22.6 0 Calma 6 Sudoeste 0 -- -- 81
2017-08-17 07:00:00 22.2 4 Oeste 5 Oeste 0 -- -- 87
2017-08-17 06:00:00 22.3 3 Norte 5 Nordeste 0 -- -- 87
2017-08-17 05:00:00 22.6 2 Norte 5 Nordeste 0 -- -- 85
2017-08-17 04:00:00 23 0 Calma 5 Nordeste 0 -- -- 82
2017-08-17 03:00:00 23.6 4 Nordeste 14 Sudeste 0 -- -- 80
2017-08-17 02:00:00 24.9 6 Sudeste 12 Sudeste 0 -- -- 74
2017-08-17 01:00:00 25.4 4 Sudeste 17 Sudeste 0 -- -- 71
2017-08-17 00:00:00 26.4 11 Sudeste 20 Sudeste 0 -- -- 68
2017-08-16 23:00:00 27.6 11 Sudeste 24 Sudeste 0 -- -- 64
2017-08-16 22:00:00 29 9 Sudeste 28 Sudeste 0 -- -- 58
2017-08-16 21:00:00 30.3 17 Sudeste 30 Sudeste 0 -- -- 55
2017-08-16 20:00:00 31.6 19 Sudeste 34 Sudeste 0 -- -- 51
2017-08-16 19:00:00 33.3 18 Sudeste 37 Sudeste 0 -- -- 47
2017-08-16 18:00:00 35.2 16 Sudeste 27 Sudeste 0 -- -- 36
2017-08-16 17:00:00 35.3 14 Sudeste 28 Sudeste 0 -- -- 37
2017-08-16 16:00:00 35.8 10 Sudeste 22 Sudeste 0 -- -- 38
2017-08-16 15:00:00 34.9 8 Este 17 Este 0 -- -- 37
2017-08-16 14:00:00 32.8 8 Nordeste 14 Nordeste 0 -- -- 45
2017-08-16 13:00:00 31 4 Este 13 Este 0 -- -- 52
2017-08-16 12:00:00 28.7 4 Nordeste 10 Este 0.8 -- -- 62
2017-08-16 11:00:00 26.5 5 Nordeste 11 Nordeste 0 -- -- 70
2017-08-16 10:00:00 24.7 4 Nordeste 8 Nordeste 0 -- -- 77
2017-08-16 09:00:00 22.7 2 Sudeste 9 Sur 0 -- -- 79
2017-08-16 08:00:00 20.8 6 Sur 9 Sur 0 -- -- 84
2017-08-16 07:00:00 21 3 Sudeste 5 Sudeste 0 -- -- 82
2017-08-16 06:00:00 21.7 2 Sur 5 Sur 0 -- -- 83
2017-08-16 05:00:00 22.2 3 Noroeste 6 Noroeste 0 -- -- 87
2017-08-16 04:00:00 22.5 4 Norte 6 Noroeste 0 -- -- 85
2017-08-16 03:00:00 23.2 3 Nordeste 5 Nordeste 0 -- -- 81
2017-08-16 02:00:00 24.4 3 Sudeste 14 Sudeste 0 -- -- 75
2017-08-16 01:00:00 24.8 9 Sudeste 15 Sudeste 0 -- -- 76
2017-08-16 00:00:00 25.5 8 Este 18 Sudeste 0 -- -- 72
2017-08-15 23:00:00 25.8 13 Sudeste 32 Sudeste 0 -- -- 72
2017-08-15 22:00:00 26.6 14 Sudeste 35 Sudeste 0 -- -- 68
2017-08-15 21:00:00 27.7 19 Sudeste 32 Sudeste 0 -- -- 61
2017-08-15 20:00:00 29 16 Sudeste 34 Sudeste 0 -- -- 57
2017-08-15 19:00:00 29.9 21 Sudeste 32 Sudeste 0 -- -- 54
2017-08-15 18:00:00 31.3 18 Sudeste 30 Sudeste 0 -- -- 48
2017-08-15 17:00:00 32.7 12 Sudeste 27 Sudeste 0 -- -- 41
2017-08-15 16:00:00 34.3 17 Sudeste 26 Este 0 -- -- 37
2017-08-15 15:00:00 33.7 10 Sudeste 18 Este 0 -- -- 34
2017-08-15 14:00:00 31.8 7 Este 15 Nordeste 0 -- -- 40
2017-08-15 13:00:00 29.8 4 Sudeste 13 Este 0 -- -- 41
2017-08-15 12:00:00 27.6 4 Nordeste 8 Nordeste 0 -- -- 44
2017-08-15 11:00:00 24.3 3 Norte 7 Noroeste 0 -- -- 54
2017-08-15 10:00:00 22.9 3 Sur 9 Sudeste 0 -- -- 65
2017-08-15 09:00:00 21.7 5 Sudeste 8 Sudeste 0 -- -- 68
2017-08-15 08:00:00 20.3 4 Noroeste 9 Noroeste 0 -- -- 73
2017-08-15 07:00:00 20.1 6 Oeste 12 Oeste 0 -- -- 69
2017-08-15 06:00:00 20.3 2 Norte 12 Sudoeste 0 -- -- 60
2017-08-15 05:00:00 20 3 Sur 7 Sudeste 0 -- -- 62
2017-08-15 04:00:00 20.9 2 Noroeste 7 Oeste 0 -- -- 77
2017-08-15 03:00:00 21.5 4 Sudeste 8 Sudeste 0 -- -- 77
2017-08-15 02:00:00 22 3 Sudeste 10 Sudeste 0 -- -- 79
2017-08-15 01:00:00 22.5 7 Sudeste 13 Sur 0 -- -- 76
2017-08-15 00:00:00 23.1 7 Sudeste 19 Sudeste 0 -- -- 73
2017-08-14 23:00:00 24 10 Sudeste 19 Sudeste 0 -- -- 62
2017-08-14 22:00:00 25.2 10 Sudeste 28 Sudeste 0 -- -- 46
2017-08-14 21:00:00 26.5 17 Sudeste 31 Sudeste 0 -- -- 48
2017-08-14 20:00:00 28.7 17 Sudeste 29 Sudeste 0 -- -- 40
2017-08-14 19:00:00 29.9 21 Sudeste 32 Sudeste 0 -- -- 33
2017-08-14 18:00:00 30.6 18 Sudeste 32 Sudeste 0 -- -- 34
2017-08-14 17:00:00 31 14 Sudeste 34 Sudeste 0 -- -- 34
2017-08-14 16:00:00 30.5 17 Sudeste 46 Sudeste 0 -- -- 41
2017-08-14 15:00:00 30.3 7 Sudeste 26 Sudeste 0 -- -- 43
2017-08-14 14:00:00 28.7 15 Sudeste 29 Sudeste 0 -- -- 47
2017-08-14 13:00:00 27 12 Sudeste 28 Sudeste 0 -- -- 52
2017-08-14 12:00:00 26.6 7 Este 14 Nordeste 0 -- -- 54
2017-08-14 11:00:00 24.5 5 Nordeste 9 Este 0 -- -- 61
2017-08-14 10:00:00 23 4 Sudeste 8 Sudeste 0 -- -- 65
2017-08-14 09:00:00 20 3 Sudeste 10 Sur 0 -- -- 68
2017-08-14 08:00:00 18.2 8 Sur 13 Sur 0 -- -- 75
2017-08-14 07:00:00 18.6 0 Calma 8 Sur 0 -- -- 79
2017-08-14 06:00:00 19.2 7 Sur 10 Sur 0 -- -- 80
2017-08-14 05:00:00 20.2 6 Sur 9 Sur 0 -- -- 76
2017-08-14 04:00:00 21 4 Sudeste 6 Sudeste 0 -- -- 75
2017-08-14 03:00:00 21.6 2 Sudoeste 9 Sudeste 0 -- -- 75
2017-08-14 02:00:00 22.1 5 Sudeste 13 Sudeste 0 -- -- 74
2017-08-14 01:00:00 21.6 6 Sudeste 17 Sudeste 0 -- -- 74
2017-08-14 00:00:00 22 10 Sudeste 20 Sudeste 0 -- -- 72
2017-08-13 23:00:00 22.7 15 Sudeste 27 Sudeste 0 -- -- 68
2017-08-13 22:00:00 23.7 16 Sudeste 30 Sudeste 0 -- -- 62
2017-08-13 21:00:00 25.1 19 Sudeste 30 Sudeste 0 -- -- 57
2017-08-13 20:00:00 27.2 19 Sudeste 32 Sudeste 0 -- -- 49
2017-08-13 19:00:00 28.9 19 Sudeste 36 Sudeste 0 -- -- 39
2017-08-13 18:00:00 30 18 Sudeste 36 Sur 0 -- -- 35
2017-08-13 17:00:00 30.2 18 Sudeste 39 Sudeste 0 -- -- 35
2017-08-13 16:00:00 30.1 15 Sudeste 31 Sudeste 0 -- -- 41
2017-08-13 15:00:00 29.6 14 Sudeste 23 Sudeste 0 -- -- 43
2017-08-13 14:00:00 28.7 8 Sudeste 23 Este 0 -- -- 44
2017-08-13 13:00:00 27.2 9 Sudeste 26 Sudeste 0 -- -- 49
2017-08-13 12:00:00 26 5 Este 12 Nordeste 0 -- -- 49
2017-08-13 11:00:00 24 4 Nordeste 13 Este 0 -- -- 60
2017-08-13 10:00:00 21.7 4 Sudeste 8 Este 0 -- -- 66
2017-08-13 09:00:00 19.9 3 Noroeste 6 Nordeste 0 -- -- 67
2017-08-13 08:00:00 17.6 3 Sur 8 Sur 0 -- -- 72
2017-08-13 07:00:00 17.1 6 Sur 9 Sur 0 -- -- 75
2017-08-13 06:00:00 17.5 5 Sur 8 Sur 0 -- -- 71
2017-08-13 05:00:00 18.3 3 Sudeste 5 Sudeste 0 -- -- 71
2017-08-13 04:00:00 19.4 0 Calma 4 Sur 0 -- -- 76
2017-08-13 03:00:00 19.6 2 Noroeste 5 Este 0 -- -- 79
2017-08-13 02:00:00 20.4 4 Este 10 Sudeste 0 -- -- 75
2017-08-13 01:00:00 21.1 6 Sudeste 13 Sudeste 0 -- -- 70
2017-08-13 00:00:00 21.8 8 Sudeste 15 Sudeste 0 -- -- 61
2017-08-12 23:00:00 22.7 9 Sudeste 21 Sudeste 0 -- -- 52
2017-08-12 22:00:00 23.9 12 Sudeste 26 Sudeste 0 -- -- 44
2017-08-12 21:00:00 25.5 16 Sudeste 35 Sudeste 0 -- -- 40
2017-08-12 20:00:00 27.1 23 Sudeste 39 Sudeste 0 -- -- 38
2017-08-12 19:00:00 28.6 22 Sudeste 39 Sudeste 0 -- -- 34
2017-08-12 18:00:00 29.9 18 Sudeste 32 Sudeste 0 -- -- 33
2017-08-12 17:00:00 30.1 18 Sudeste 26 Sudeste 0 -- -- 36
2017-08-12 16:00:00 29.6 15 Sudeste 31 Sudeste 0 -- -- 36
2017-08-12 15:00:00 28.7 13 Sudeste 27 Sudeste 0 -- -- 38
2017-08-12 14:00:00 28.2 14 Sudeste 26 Sudeste 0 -- -- 42
2017-08-12 13:00:00 26.9 15 Sudeste 31 Sudeste 0 -- -- 47
2017-08-12 12:00:00 25.2 11 Sudeste 26 Sudeste 0 -- -- 53
2017-08-12 11:00:00 23 4 Este 12 Este 0 -- -- 62
2017-08-12 10:00:00 22.5 3 Sudeste 9 Sudeste 0 -- -- 62
2017-08-12 09:00:00 20.3 5 Sudeste 13 Sur 0 -- -- 67
2017-08-12 08:00:00 18.4 7 Sur 12 Sur 0 -- -- 77
2017-08-12 07:00:00 18 4 Sudeste 8 Sudeste 0 -- -- 77
2017-08-12 06:00:00 18.4 2 Sudeste 7 Sur 0 -- -- 74
2017-08-12 05:00:00 18.8 2 Este 6 Sudoeste 0 -- -- 76
2017-08-12 04:00:00 19.5 0 Calma 5 Sudeste 0 -- -- 77
2017-08-12 03:00:00 19.9 2 Sudeste 9 Sudeste 0 -- -- 75
2017-08-12 02:00:00 20.4 7 Sudeste 20 Sudeste 0 -- -- 73
2017-08-12 01:00:00 21 14 Sudeste 23 Sudeste 0 -- -- 70
2017-08-12 00:00:00 21.6 8 Sudeste 17 Sudeste 0 -- -- 65
2017-08-11 23:00:00 22.5 9 Sudeste 14 Sudeste 0 -- -- 59
2017-08-11 22:00:00 23.7 9 Sudeste 35 Sudeste 0 -- -- 55
2017-08-11 21:00:00 25.1 19 Sudeste 35 Sudeste 0 -- -- 51
2017-08-11 20:00:00 27.2 21 Sudeste 36 Sudeste 0 -- -- 43
2017-08-11 19:00:00 28.8 18 Sudeste 32 Sudeste 0 -- -- 38
2017-08-11 18:00:00 30.1 12 Sudeste 27 Sudeste 0 -- -- 35
2017-08-11 17:00:00 30.6 13 Sudeste 27 Sudeste 0 -- -- 33
2017-08-11 16:00:00 30.5 11 Sudeste 24 Sudeste 0 -- -- 32
2017-08-11 15:00:00 29.5 10 Sudeste 28 Sudeste 0 -- -- 34
2017-08-11 14:00:00 29 11 Sur 27 Sudeste 0 -- -- 37
2017-08-11 13:00:00 28 12 Sudeste 27 Sudeste 0 -- -- 38
2017-08-11 12:00:00 26.7 10 Sudeste 23 Sudeste 0 -- -- 45
2017-08-11 11:00:00 26 6 Sudeste 13 Sur 0 -- -- 48
2017-08-11 10:00:00 23.6 5 Nordeste 13 Oeste 0 -- -- 60
2017-08-11 09:00:00 21.5 7 Noroeste 12 Noroeste 0 -- -- 67
2017-08-11 08:00:00 20 4 Norte 8 Nordeste 0 -- -- 71
2017-08-11 07:00:00 19.7 4 Nordeste 9 Nordeste 0 -- -- 72
2017-08-11 06:00:00 19.7 3 Nordeste 12 Este 0 -- -- 76
2017-08-11 05:00:00 20.1 6 Este 10 Este 0 -- -- 72
2017-08-11 04:00:00 20.3 5 Este 12 Sudeste 0 -- -- 73
2017-08-11 03:00:00 19.8 8 Sudeste 12 Sudeste 0 -- -- 75
2017-08-11 02:00:00 19.8 6 Sudeste 13 Sudeste 0 -- -- 76
2017-08-11 01:00:00 20.1 9 Sudeste 17 Sur 0 -- -- 74
2017-08-11 00:00:00 20.6 6 Sudeste 16 Sudeste 0 -- -- 73
2017-08-10 23:00:00 21.4 10 Sudeste 28 Sudeste 0 -- -- 70
2017-08-10 22:00:00 22.3 17 Sudeste 30 Sudeste 0 -- -- 66
2017-08-10 21:00:00 23.6 20 Sudeste 34 Sudeste 0 -- -- 62
2017-08-10 20:00:00 25 18 Sudeste 33 Sudeste 0 -- -- 57
2017-08-10 19:00:00 25.9 18 Sudeste 31 Sudeste 0 -- -- 54
2017-08-10 18:00:00 27 17 Sudeste 29 Sudeste 0 -- -- 50
2017-08-10 17:00:00 27.4 12 Sudeste 24 Sudeste 0 -- -- 49
2017-08-10 16:00:00 27.1 13 Sudeste 23 Sudeste 0 -- -- 50
2017-08-10 15:00:00 26.3 12 Sudeste 22 Sudeste 0 -- -- 50
2017-08-10 14:00:00 25.4 7 Sur 15 Sudeste 0 -- -- 48
2017-08-10 13:00:00 23.7 5 Este 10 Nordeste 0 -- -- 51
2017-08-10 12:00:00 21.4 6 Norte 15 Nordeste 0 -- -- 56
2017-08-10 11:00:00 21 6 Nordeste 13 Nordeste 0 -- -- 58
2017-08-10 10:00:00 20.1 8 Este 18 Nordeste 0 -- -- 60
2017-08-10 09:00:00 19.6 8 Nordeste 22 Este 0 -- -- 63
2017-08-10 08:00:00 19.6 10 Este 24 Nordeste 0 -- -- 62
2017-08-10 07:00:00 20.4 9 Norte 21 Norte 0 -- -- 63
2017-08-10 06:00:00 20.7 9 Norte 16 Norte 0 -- -- 62
2017-08-10 05:00:00 20.7 6 Norte 14 Nordeste 0 -- -- 68
2017-08-10 04:00:00 21 12 Nordeste 22 Nordeste 0 -- -- 65
2017-08-10 03:00:00 21.1 11 Nordeste 26 Este 0 -- -- 69
2017-08-10 02:00:00 21.4 18 Nordeste 36 Nordeste 0 -- -- 69
2017-08-10 01:00:00 23.4 19 Nordeste 33 Nordeste 0 -- -- 71
2017-08-10 00:00:00 25 6 Nordeste 21 Este 0.2 -- -- 72
2017-08-09 23:00:00 26 9 Este 23 Este 0 -- -- 69
2017-08-09 22:00:00 26.6 11 Sudeste 26 Sudeste 0 -- -- 67
2017-08-09 21:00:00 27.6 17 Sudeste 39 Este 0 -- -- 63
2017-08-09 20:00:00 28.9 23 Sudeste 43 Sudeste 0 -- -- 59
2017-08-09 19:00:00 30.9 25 Sudeste 48 Sudeste 0 -- -- 52
2017-08-09 18:00:00 33.4 12 Este 33 Este 0 -- -- 33
2017-08-09 17:00:00 33.6 13 Nordeste 29 Este 0 -- -- 34
2017-08-09 16:00:00 33.5 14 Nordeste 28 Este 0 -- -- 35
2017-08-09 15:00:00 32.9 13 Nordeste 22 Nordeste 0 -- -- 37
2017-08-09 14:00:00 32 11 Nordeste 23 Sudeste 0 -- -- 39
2017-08-09 13:00:00 30.4 9 Sudeste 21 Este 0 -- -- 41
2017-08-09 12:00:00 29.1 9 Este 21 Sudeste 0 -- -- 49
2017-08-09 11:00:00 27.8 6 Sudeste 12 Sudeste 0 -- -- 55
2017-08-09 10:00:00 26.1 4 Este 10 Este 0 -- -- 60
2017-08-09 09:00:00 23.7 3 Norte 9 Oeste 0 -- -- 66
2017-08-09 08:00:00 22.8 0 Calma 4 Norte 0 -- -- 75
2017-08-09 07:00:00 22.6 0 Calma 4 Oeste 0 -- -- 76
2017-08-09 06:00:00 23 3 Este 5 Sudeste 0 -- -- 77
2017-08-09 05:00:00 23 3 Sudeste 7 Sudeste 0 -- -- 77
2017-08-09 04:00:00 23.5 6 Sur 10 Sur 0 -- -- 77
2017-08-09 03:00:00 23.8 5 Sudeste 10 Sudeste 0 -- -- 77
2017-08-09 02:00:00 23.9 9 Sudeste 18 Sudeste 0 -- -- 76
2017-08-09 01:00:00 24.6 12 Sudeste 22 Sudeste 0 -- -- 74
2017-08-09 00:00:00 25.5 10 Sudeste 19 Sudeste 0 -- -- 70
2017-08-08 23:00:00 26.5 15 Sudeste 24 Sudeste 0 -- -- 72
2017-08-08 22:00:00 28.1 4 Este 18 Nordeste 0 -- -- 65
2017-08-08 21:00:00 30.3 11 Nordeste 28 Sudeste 0 -- -- 55
2017-08-08 20:00:00 34 12 Este 30 Este 0 -- -- 39
2017-08-08 19:00:00 38.4 8 Nordeste 32 Noroeste 0 -- -- 9
2017-08-08 18:00:00 38.9 12 Noroeste 26 Oeste 0 -- -- 9
2017-08-08 17:00:00 39.4 14 Oeste 29 Sudoeste 0 -- -- 9
2017-08-08 16:00:00 39.5 11 Nordeste 30 Noroeste 0 -- -- 10
2017-08-08 15:00:00 38.5 11 Nordeste 24 Sur 0 -- -- 13
2017-08-08 14:00:00 36.7 4 Este 18 Nordeste 0 -- -- 17
2017-08-08 13:00:00 34.4 5 Este 13 Este 0 -- -- 20
2017-08-08 12:00:00 31.3 5 Norte 10 Norte 0 -- -- 31
2017-08-08 11:00:00 29.6 5 Norte 10 Nordeste 0 -- -- 41
2017-08-08 10:00:00 27.1 5 Noroeste 10 Noroeste 0 -- -- 63
2017-08-08 09:00:00 24.3 5 Noroeste 10 Noroeste 0 -- -- 79
2017-08-08 08:00:00 22.9 5 Noroeste 14 Oeste 0 -- -- 84
2017-08-08 07:00:00 22 0 Calma 5 Noroeste 0 -- -- 83
2017-08-08 06:00:00 23 0 Calma 8 Oeste 0 -- -- 84
2017-08-08 05:00:00 23.2 0 Calma 8 Noroeste 0 -- -- 80
2017-08-08 04:00:00 24 7 Oeste 10 Oeste 0 -- -- 83
2017-08-08 03:00:00 24.6 4 Norte 8 Nordeste 0 -- -- 81
2017-08-08 02:00:00 25.3 8 Noroeste 10 Noroeste 0 -- -- 77
2017-08-08 01:00:00 26.3 3 Nordeste 12 Este 0 -- -- 73
2017-08-08 00:00:00 28.1 5 Nordeste 13 Sur 0 -- -- 68
2017-08-07 23:00:00 29.3 6 Sudeste 16 Sudeste 0 -- -- 61
2017-08-07 22:00:00 28.9 3 Este 16 Sudeste 0 -- -- 65
2017-08-07 21:00:00 31.1 8 Sudeste 25 Sudeste 0 -- -- 52
2017-08-07 20:00:00 31.9 17 Sudeste 39 Sur 0 -- -- 51
2017-08-07 19:00:00 32.9 22 Sudeste 45 Sudeste 0 -- -- 51
2017-08-07 18:00:00 33.4 20 Sudeste 36 Sudeste 0.4 -- -- 52
2017-08-07 17:00:00 35.1 16 Sudeste 36 Sudeste 0 -- -- 44
2017-08-07 16:00:00 34.4 17 Sudeste 31 Sudeste 0 -- -- 46
2017-08-07 15:00:00 32.9 18 Sudeste 33 Sudeste 0 -- -- 49
2017-08-07 14:00:00 32.4 15 Sudeste 28 Sur 0 -- -- 50
2017-08-07 13:00:00 30.5 8 Este 16 Nordeste 0 -- -- 57
2017-08-07 12:00:00 28.7 9 Nordeste 18 Sudeste 0 -- -- 65
2017-08-07 11:00:00 27.4 9 Sudeste 19 Este 0 -- -- 67
2017-08-07 10:00:00 25.9 9 Sudeste 17 Sudeste 0 -- -- 76
2017-08-07 09:00:00 24.7 7 Sudeste 14 Sudeste 0 -- -- 80
2017-08-07 08:00:00 23.4 4 Sur 6 Sur 0 -- -- 87
2017-08-07 07:00:00 23.2 3 Norte 6 Norte 0 -- -- 89
2017-08-07 06:00:00 23.8 3 Norte 6 Nordeste 0 -- -- 87
2017-08-07 05:00:00 24.2 5 Nordeste 7 Nordeste 0 -- -- 84
2017-08-07 04:00:00 24.8 6 Sudeste 14 Este 0 -- -- 80
2017-08-07 03:00:00 24.9 7 Sudeste 16 Sudeste 0 -- -- 80
2017-08-07 02:00:00 25 10 Sudeste 21 Sudeste 0 -- -- 80
2017-08-07 01:00:00 25.4 14 Sudeste 23 Sudeste 0 -- -- 78
2017-08-07 00:00:00 25.9 16 Sudeste 26 Sudeste 0 -- -- 74
2017-08-06 23:00:00 26.4 14 Sudeste 23 Sudeste 0 -- -- 72
2017-08-06 22:00:00 27.5 11 Sudeste 29 Este 0 -- -- 63
2017-08-06 21:00:00 28.8 16 Sudeste 35 Sudeste 0 -- -- 56
2017-08-06 20:00:00 30.4 20 Sudeste 36 Este 0 -- -- 51
2017-08-06 19:00:00 31.4 22 Sudeste 39 Sudeste 0 -- -- 45
2017-08-06 18:00:00 32.4 24 Sudeste 37 Sudeste 0 -- -- 45
2017-08-06 17:00:00 33.3 22 Sudeste 37 Sudeste 0 -- -- 44
2017-08-06 16:00:00 34.3 21 Sudeste 40 Sudeste 0 -- -- 45
2017-08-06 15:00:00 33.6 23 Sudeste 40 Sudeste 0 -- -- 44
2017-08-06 14:00:00 33.7 20 Sudeste 34 Sudeste 0 -- -- 43
2017-08-06 13:00:00 32.9 15 Sudeste 26 Sudeste 0 -- -- 43
2017-08-06 12:00:00 31 6 Este 13 Este 0 -- -- 51
2017-08-06 11:00:00 29 4 Nordeste 11 Nordeste 0 -- -- 57
2017-08-06 10:00:00 27.1 3 Este 8 Este 0 -- -- 64
2017-08-06 09:00:00 24.9 4 Norte 5 Norte 0 -- -- 58
2017-08-06 08:00:00 22.7 2 Sudeste 5 Sur 0 -- -- 68
2017-08-06 07:00:00 22.6 0 Calma 12 Sur 0 -- -- 65
2017-08-06 06:00:00 23.2 0 Calma 9 Sudeste 0 -- -- 74
2017-08-06 05:00:00 24.6 4 Sudeste 9 Sudeste 0 -- -- 73
2017-08-06 04:00:00 25 4 Sudeste 10 Sudeste 0 -- -- 66
2017-08-06 03:00:00 25.7 4 Sudeste 8 Sudeste 0 -- -- 61
2017-08-06 02:00:00 26.5 0 Calma 12 Este 0 -- -- 55
2017-08-06 01:00:00 28 8 Sudeste 18 Este 0 -- -- 49
2017-08-06 00:00:00 29 9 Sudeste 21 Sudeste 0 -- -- 40
2017-08-05 23:00:00 30.4 10 Sudeste 26 Este 0 -- -- 32
2017-08-05 22:00:00 31.4 17 Sudeste 30 Sudeste 0 -- -- 33
2017-08-05 21:00:00 33.1 16 Sudeste 34 Sudeste 0 -- -- 31
2017-08-05 20:00:00 35.2 24 Sudeste 42 Sudeste 0 -- -- 29
2017-08-05 19:00:00 36.2 26 Sudeste 41 Sudeste 0 -- -- 29
2017-08-05 18:00:00 37.4 21 Sudeste 43 Sudeste 0 -- -- 29
2017-08-05 17:00:00 37.6 24 Sudeste 40 Sudeste 0 -- -- 30
2017-08-05 16:00:00 37.4 24 Sudeste 42 Sudeste 0 -- -- 32
2017-08-05 15:00:00 36.5 22 Sudeste 37 Sudeste 0 -- -- 32
2017-08-05 14:00:00 35.8 17 Sudeste 30 Sudeste 0 -- -- 32
2017-08-05 13:00:00 34.7 9 Nordeste 20 Este 0 -- -- 38
2017-08-05 12:00:00 33 6 Nordeste 14 Nordeste 0 -- -- 39
2017-08-05 11:00:00 30.6 4 Nordeste 10 Este 0 -- -- 44
2017-08-05 10:00:00 28.3 2 Nordeste 5 Este 0 -- -- 50
2017-08-05 09:00:00 26 0 Calma 5 Sur 0 -- -- 52
2017-08-05 08:00:00 23.2 4 Sur 6 Sur 0 -- -- 59
2017-08-05 07:00:00 22.9 0 Calma 6 Sur 0 -- -- 60
2017-08-05 06:00:00 23.5 3 Sur 8 Sur 0 -- -- 58
2017-08-05 05:00:00 24.5 3 Sur 5 Oeste 0 -- -- 56
2017-08-05 04:00:00 25.5 0 Calma 8 Oeste 0 -- -- 56
2017-08-05 03:00:00 26.3 3 Noroeste 8 Sudoeste 0 -- -- 54
2017-08-05 02:00:00 27.6 2 Sudeste 4 Este 0 -- -- 52
2017-08-05 01:00:00 28.5 0 Calma 9 Este 0 -- -- 47
2017-08-05 00:00:00 29.3 4 Este 12 Sudeste 0 -- -- 47
2017-08-04 23:00:00 30.9 6 Sudeste 15 Sudeste 0 -- -- 44
2017-08-04 22:00:00 32.3 8 Sudeste 28 Sudeste 0 -- -- 41
2017-08-04 21:00:00 34.2 16 Sudeste 35 Sudeste 0 -- -- 37
2017-08-04 20:00:00 36 19 Sudeste 39 Sudeste 0 -- -- 35
2017-08-04 19:00:00 37.1 20 Sudeste 36 Sudeste 0 -- -- 34
2017-08-04 18:00:00 37.9 21 Sudeste 36 Sudeste 0 -- -- 34
2017-08-04 17:00:00 38.3 19 Sudeste 37 Sudeste 0 -- -- 31
2017-08-04 16:00:00 39.2 16 Sudeste 34 Sur 0 -- -- 24
2017-08-04 15:00:00 39.7 13 Este 28 Este 0 -- -- 25
2017-08-04 14:00:00 39.3 12 Nordeste 20 Nordeste 0 -- -- 23
2017-08-04 13:00:00 38.1 7 Nordeste 14 Nordeste 0 -- -- 20
2017-08-04 12:00:00 35.7 5 Nordeste 11 Nordeste 0 -- -- 21
2017-08-04 11:00:00 32.2 4 Nordeste 9 Nordeste 0 -- -- 34
2017-08-04 10:00:00 29.2 4 Noroeste 10 Oeste 0 -- -- 38
2017-08-04 09:00:00 26.6 6 Noroeste 10 Noroeste 0 -- -- 43
2017-08-04 08:00:00 24.2 0 Calma 3 Sudeste 0 -- -- 57
2017-08-04 07:00:00 24.4 2 Sur 4 Oeste 0 -- -- 62
2017-08-04 06:00:00 24.8 4 Sudoeste 6 Sudoeste 0 -- -- 62
2017-08-04 05:00:00 25 0 Calma 5 Oeste 0 -- -- 64
2017-08-04 04:00:00 25.7 3 Oeste 10 Oeste 0 -- -- 64
2017-08-04 03:00:00 26.2 7 Oeste 9 Oeste 0 -- -- 65
2017-08-04 02:00:00 27.9 8 Sur 12 Sudeste 0 -- -- 59
2017-08-04 01:00:00 28.7 5 Sudeste 9 Sur 0 -- -- 58
2017-08-04 00:00:00 29.4 5 Sudeste 11 Sudeste 0 -- -- 56
2017-08-03 23:00:00 30.3 3 Nordeste 20 Este 0 -- -- 54
2017-08-03 22:00:00 32.5 9 Este 33 Sudeste 0 -- -- 46
2017-08-03 21:00:00 35.2 14 Sudeste 31 Este 0 -- -- 35
2017-08-03 20:00:00 37.7 16 Sudeste 29 Sudeste 0 -- -- 29
2017-08-03 19:00:00 40 10 Nordeste 18 Este 0 -- -- 17
2017-08-03 18:00:00 39.9 8 Nordeste 17 Este 0 -- -- 16
2017-08-03 17:00:00 39.6 7 Norte 18 Este 0 -- -- 18
2017-08-03 16:00:00 39.2 6 Nordeste 16 Sudeste 0 -- -- 19
2017-08-03 15:00:00 38.8 7 Sudeste 12 Sudeste 0 -- -- 17
2017-08-03 14:00:00 36.8 4 Nordeste 15 Nordeste 0 -- -- 24
2017-08-03 13:00:00 34.8 7 Nordeste 13 Este 0 -- -- 34
2017-08-03 12:00:00 32.7 5 Sudeste 10 Sudeste 0 -- -- 43
2017-08-03 11:00:00 30.1 4 Nordeste 12 Este 0 -- -- 53
2017-08-03 10:00:00 27.9 6 Norte 10 Noroeste 0 -- -- 59
2017-08-03 09:00:00 25.5 2 Nordeste 9 Oeste 0 -- -- 66
2017-08-03 08:00:00 23.5 0 Calma 4 Sur 0 -- -- 73
2017-08-03 07:00:00 23 4 Sudoeste 6 Sudoeste 0 -- -- 74
2017-08-03 06:00:00 23.4 4 Sudeste 8 Sudeste 0 -- -- 72
2017-08-03 05:00:00 24 0 Calma 7 Sur 0 -- -- 73
2017-08-03 04:00:00 24.4 0 Calma 5 Noroeste 0 -- -- 72
2017-08-03 03:00:00 25.9 3 Sur 7 Sur 0 -- -- 69
2017-08-03 02:00:00 26.4 0 Calma 12 Sudeste 0 -- -- 67
2017-08-03 01:00:00 27.2 6 Sudeste 12 Este 0 -- -- 64
2017-08-03 00:00:00 27.6 6 Sudeste 15 Sur 0 -- -- 62
2017-08-02 23:00:00 28.6 12 Sudeste 22 Sudeste 0 -- -- 59
2017-08-02 22:00:00 29.8 15 Sudeste 28 Sudeste 0 -- -- 54
2017-08-02 21:00:00 31.6 15 Sudeste 26 Sudeste 0 -- -- 46
2017-08-02 20:00:00 32.8 15 Sudeste 26 Sudeste 0 -- -- 41
2017-08-02 19:00:00 34 10 Sudeste 26 Sudeste 0 -- -- 41
2017-08-02 18:00:00 34 13 Este 30 Sudeste 0 -- -- 41
2017-08-02 17:00:00 34.1 14 Sudeste 27 Este 0 -- -- 42
2017-08-02 16:00:00 33.3 11 Sudeste 18 Sudeste 0 -- -- 45
2017-08-02 15:00:00 32.2 8 Este 21 Nordeste 0 -- -- 50
2017-08-02 14:00:00 31.7 13 Nordeste 19 Nordeste 0 -- -- 50
2017-08-02 13:00:00 30.3 9 Nordeste 15 Nordeste 0 -- -- 52
2017-08-02 12:00:00 30.3 5 Este 12 Sudeste 0 -- -- 51
2017-08-02 11:00:00 29.4 4 Nordeste 10 Este 0 -- -- 52
2017-08-02 10:00:00 26.5 3 Norte 9 Noroeste 0 -- -- 61
2017-08-02 09:00:00 24.5 3 Noroeste 13 Oeste 0 -- -- 67
2017-08-02 08:00:00 23.9 3 Sudoeste 9 Oeste 0 -- -- 72
2017-08-02 07:00:00 24.3 6 Noroeste 17 Oeste 0 -- -- 69
2017-08-02 06:00:00 24.5 7 Noroeste 19 Oeste 0 -- -- 71
2017-08-02 05:00:00 24.5 4 Nordeste 11 Sur 0 -- -- 75
2017-08-02 04:00:00 24.9 5 Oeste 12 Oeste 0 -- -- 74
2017-08-02 03:00:00 25.8 0 Calma 19 Sudeste 0 -- -- 70
2017-08-02 02:00:00 25.9 8 Sur 37 Sudeste 0.2 -- -- 70
2017-08-02 01:00:00 26.9 17 Sudeste 44 Este 0 -- -- 61
2017-08-02 00:00:00 26.8 10 Sudeste 37 Este 0 -- -- 60
2017-08-01 23:00:00 27 27 Sudeste 51 Sudeste 0 -- -- 64
2017-08-01 22:00:00 27.8 13 Sudeste 42 Sudeste 0 -- -- 59
2017-08-01 21:00:00 28.3 26 Sudeste 46 Sudeste 0 -- -- 57
2017-08-01 20:00:00 29.8 22 Sudeste 48 Sudeste 0 -- -- 60
2017-08-01 19:00:00 32 20 Sudeste 37 Este 0 -- -- 51
2017-08-01 18:00:00 34.4 19 Sudeste 31 Sudeste 0 -- -- 42
2017-08-01 17:00:00 35.1 13 Sudeste 25 Sudeste 0 -- -- 32
2017-08-01 16:00:00 34.8 12 Sudeste 19 Sudeste 0 -- -- 32
2017-08-01 15:00:00 33.6 5 Este 15 Este 0 -- -- 36
2017-08-01 14:00:00 31.9 4 Noroeste 13 Oeste 0 -- -- 41
2017-08-01 13:00:00 30.5 7 Norte 13 Nordeste 0 -- -- 46
2017-08-01 12:00:00 29.2 5 Sudeste 9 Este 0 -- -- 57
2017-08-01 11:00:00 28.4 3 Nordeste 14 Norte 0 -- -- 62
2017-08-01 10:00:00 26.2 8 Noroeste 13 Noroeste 0 -- -- 72
2017-08-01 09:00:00 24.4 3 Nordeste 11 Sudeste 0 -- -- 77
2017-08-01 08:00:00 23 5 Sur 9 Sudeste 0 -- -- 81
2017-08-01 07:00:00 22.8 0 Calma 13 Oeste 0 -- -- 82
2017-08-01 06:00:00 22.7 5 Noroeste 9 Sudeste 0 -- -- 82
2017-08-01 05:00:00 23.9 5 Sur 11 Sudeste 0 -- -- 81
2017-08-01 04:00:00 24.2 3 Este 5 Este 0 -- -- 80
2017-08-01 03:00:00 24.3 3 Nordeste 6 Nordeste 0 -- -- 78
2017-08-01 02:00:00 24.6 3 Norte 8 Noroeste 0 -- -- 78
2017-08-01 01:00:00 25.5 2 Nordeste 15 Sudeste 0 -- -- 74
2017-08-01 00:00:00 26.3 9 Sudeste 33 Este 0 -- -- 71
2017-07-31 23:00:00 27 17 Sudeste 35 Sudeste 0 -- -- 70
2017-07-31 22:00:00 28.5 17 Sudeste 38 Sudeste 0 -- -- 61
2017-07-31 21:00:00 30.5 23 Sudeste 46 Sudeste 0 -- -- 53
2017-07-31 20:00:00 32.9 19 Sudeste 32 Este 0 -- -- 45
2017-07-31 19:00:00 34.9 15 Sudeste 32 Sudeste 0 -- -- 40
2017-07-31 18:00:00 34.9 17 Sudeste 38 Sudeste 0 -- -- 39
2017-07-31 17:00:00 34.8 17 Sudeste 36 Sudeste 0 -- -- 38
2017-07-31 16:00:00 34.9 22 Sudeste 37 Sudeste 0 -- -- 36
2017-07-31 15:00:00 34.6 18 Sudeste 35 Sudeste 0 -- -- 32
2017-07-31 14:00:00 33.8 16 Sudeste 30 Sudeste 0 -- -- 32
2017-07-31 13:00:00 33.2 14 Sudeste 23 Sudeste 0 -- -- 31
2017-07-31 12:00:00 31.5 8 Este 18 Nordeste 0 -- -- 45
2017-07-31 11:00:00 29.6 6 Sudeste 12 Este 0 -- -- 48
2017-07-31 10:00:00 26.6 3 Sur 9 Sudeste 0 -- -- 55
2017-07-31 09:00:00 23.7 5 Sudeste 9 Sur 0 -- -- 66
2017-07-31 08:00:00 21.5 4 Sur 9 Sudeste 0 -- -- 73
2017-07-31 07:00:00 21.6 2 Sudoeste 9 Sudoeste 0 -- -- 78
2017-07-31 06:00:00 22 3 Sur 10 Oeste 0 -- -- 75
2017-07-31 05:00:00 22.8 5 Noroeste 7 Oeste 0 -- -- 77
2017-07-31 04:00:00 23.9 5 Sudeste 7 Sur 0 -- -- 75
2017-07-31 03:00:00 24.8 4 Sudeste 12 Sudeste 0 -- -- 69
2017-07-31 02:00:00 25.6 4 Este 18 Sudeste 0 -- -- 65
2017-07-31 01:00:00 26.3 9 Sudeste 17 Sudeste 0 -- -- 64
2017-07-31 00:00:00 27.2 13 Sudeste 23 Sudeste 0 -- -- 62
2017-07-30 23:00:00 28.9 11 Sudeste 21 Sudeste 0 -- -- 55
2017-07-30 22:00:00 30.9 4 Este 28 Sudeste 0 -- -- 46
2017-07-30 21:00:00 33.3 17 Sudeste 33 Sudeste 0 -- -- 36
2017-07-30 20:00:00 36.3 22 Sudeste 42 Este 0 -- -- 22
2017-07-30 19:00:00 37.8 24 Sudeste 43 Sudeste 0 -- -- 24
2017-07-30 18:00:00 38.3 28 Sudeste 41 Sudeste 0 -- -- 28
2017-07-30 17:00:00 38.9 22 Este 41 Sudeste 0 -- -- 24
2017-07-30 16:00:00 39.3 20 Sudeste 39 Sudeste 0 -- -- 20
2017-07-30 15:00:00 39.8 14 Sudeste 26 Sudeste 0 -- -- 17
2017-07-30 14:00:00 38.2 10 Nordeste 17 Nordeste 0 -- -- 22
2017-07-30 13:00:00 36 7 Nordeste 13 Nordeste 0 -- -- 26
2017-07-30 12:00:00 32.8 6 Nordeste 11 Nordeste 0 -- -- 37
2017-07-30 11:00:00 30.4 5 Este 10 Sudeste 0 -- -- 29
2017-07-30 10:00:00 26.9 6 Sudeste 9 Sudeste 0 -- -- 46
2017-07-30 09:00:00 23.9 0 Calma 6 Sudeste 0 -- -- 53
2017-07-30 08:00:00 21.9 2 Sudeste 9 Sur 0 -- -- 57
2017-07-30 07:00:00 20.9 7 Sur 11 Sur 0 -- -- 58
2017-07-30 06:00:00 21.7 4 Sur 9 Sur 0 -- -- 59
2017-07-30 05:00:00 22.2 4 Sur 6 Sudeste 0 -- -- 59
2017-07-30 04:00:00 23.3 4 Sur 6 Sur 0 -- -- 56
2017-07-30 03:00:00 24.7 0 Calma 8 Sudoeste 0 -- -- 53
2017-07-30 02:00:00 25.8 0 Calma 5 Noroeste 0 -- -- 53
2017-07-30 01:00:00 26.2 3 Noroeste 8 Este 0 -- -- 54
2017-07-30 00:00:00 27.5 5 Nordeste 22 Sudeste 0 -- -- 51
2017-07-29 23:00:00 29.6 12 Sudeste 21 Sudeste 0 -- -- 43
2017-07-29 22:00:00 31 9 Sudeste 26 Este 0 -- -- 41
2017-07-29 21:00:00 32.6 18 Sudeste 32 Sudeste 0 -- -- 39
2017-07-29 20:00:00 34.2 19 Sudeste 36 Sudeste 0 -- -- 40
2017-07-29 19:00:00 35.3 22 Sudeste 41 Sudeste 0 -- -- 38
2017-07-29 18:00:00 36.2 20 Sudeste 40 Sudeste 0 -- -- 36
2017-07-29 17:00:00 37.1 18 Sudeste 29 Sudeste 0 -- -- 33
2017-07-29 16:00:00 36.9 18 Sudeste 31 Sudeste 0 -- -- 28
2017-07-29 15:00:00 36.9 14 Sudeste 27 Sudeste 0 -- -- 25
2017-07-29 14:00:00 35.3 12 Nordeste 20 Nordeste 0 -- -- 30
2017-07-29 13:00:00 33.2 8 Nordeste 14 Nordeste 0 -- -- 30
2017-07-29 12:00:00 31.4 6 Norte 10 Nordeste 0 -- -- 35
2017-07-29 11:00:00 29.2 6 Nordeste 12 Este 0 -- -- 39
2017-07-29 10:00:00 26.2 3 Norte 6 Sur 0 -- -- 45
2017-07-29 09:00:00 23.3 4 Sudeste 7 Sudeste 0 -- -- 52
2017-07-29 08:00:00 21.5 2 Sudoeste 7 Sur 0 -- -- 55
2017-07-29 07:00:00 21.2 3 Sur 8 Sudoeste 0 -- -- 57
2017-07-29 06:00:00 21.4 5 Sur 9 Sur 0 -- -- 57
2017-07-29 05:00:00 22.7 3 Sudeste 10 Sur 0 -- -- 54
2017-07-29 04:00:00 23.6 5 Sur 8 Sur 0 -- -- 52
2017-07-29 03:00:00 24.7 0 Calma 9 Sudeste 0 -- -- 48
2017-07-29 02:00:00 25.6 6 Sudeste 11 Sudeste 0 -- -- 44
2017-07-29 01:00:00 26.4 5 Sudeste 8 Sur 0 -- -- 43
2017-07-29 00:00:00 27.3 5 Sudeste 15 Sudeste 0 -- -- 42
2017-07-28 23:00:00 28.2 5 Sudeste 12 Sur 0 -- -- 43
2017-07-28 22:00:00 30.2 5 Este 30 Este 0 -- -- 41
2017-07-28 21:00:00 32.3 14 Sudeste 40 Sudeste 0 -- -- 35
2017-07-28 20:00:00 34.1 26 Sudeste 41 Sudeste 0 -- -- 32
2017-07-28 19:00:00 35.7 23 Sudeste 40 Sudeste 0 -- -- 31
2017-07-28 18:00:00 37.2 22 Sudeste 41 Sudeste 0 -- -- 26
2017-07-28 17:00:00 38 21 Sudeste 36 Sudeste 0 -- -- 25
2017-07-28 16:00:00 38 17 Sudeste 38 Sudeste 0 -- -- 21
2017-07-28 15:00:00 38.2 16 Sudeste 26 Sudeste 0 -- -- 22
2017-07-28 14:00:00 37.6 12 Nordeste 19 Nordeste 0 -- -- 23
2017-07-28 13:00:00 35.3 7 Nordeste 13 Nordeste 0 -- -- 29
2017-07-28 12:00:00 32.8 3 Nordeste 10 Este 0 -- -- 30
2017-07-28 11:00:00 30.1 3 Sudeste 9 Este 0 -- -- 37
2017-07-28 10:00:00 26.9 2 Este 5 Nordeste 0 -- -- 48
2017-07-28 09:00:00 23.6 2 Sur 8 Sur 0 -- -- 54
2017-07-28 08:00:00 20.9 6 Sur 10 Sur 0 -- -- 62
2017-07-28 07:00:00 20.8 5 Sur 8 Sur 0 -- -- 61
2017-07-28 06:00:00 21.8 5 Sur 6 Sur 0 -- -- 59
2017-07-28 05:00:00 22.3 6 Sur 10 Sur 0 -- -- 58
2017-07-28 04:00:00 24.2 5 Sur 9 Sur 0 -- -- 57
2017-07-28 03:00:00 25.3 7 Sudeste 10 Sudeste 0 -- -- 55
2017-07-28 02:00:00 25.2 5 Nordeste 12 Nordeste 0 -- -- 55
2017-07-28 01:00:00 25.9 3 Nordeste 17 Sudeste 0 -- -- 52
2017-07-28 00:00:00 27.3 5 Sudeste 12 Este 0 -- -- 44
2017-07-27 23:00:00 29.3 5 Este 21 Sudeste 0 -- -- 42
2017-07-27 22:00:00 30.3 13 Sudeste 27 Sudeste 0 -- -- 37
2017-07-27 21:00:00 31.9 15 Sudeste 32 Sudeste 0 -- -- 35
2017-07-27 20:00:00 33.8 21 Sudeste 35 Sudeste 0 -- -- 31
2017-07-27 19:00:00 35.1 20 Sudeste 36 Sudeste 0 -- -- 28
2017-07-27 18:00:00 35.9 18 Sudeste 36 Sudeste 0 -- -- 28
2017-07-27 17:00:00 36.3 21 Sudeste 34 Sudeste 0 -- -- 26
2017-07-27 16:00:00 35.8 17 Sudeste 33 Este 0 -- -- 28
2017-07-27 15:00:00 34.5 14 Sudeste 27 Este 0 -- -- 35
2017-07-27 14:00:00 33.3 14 Este 25 Este 0 -- -- 41
2017-07-27 13:00:00 31.5 8 Nordeste 15 Nordeste 0 -- -- 50
2017-07-27 12:00:00 29.6 6 Nordeste 12 Sur 0 -- -- 57
2017-07-27 11:00:00 27.1 4 Sudeste 9 Este 0 -- -- 65
2017-07-27 10:00:00 24.9 3 Este 11 Este 0 -- -- 73
2017-07-27 09:00:00 22.8 6 Sudeste 11 Sudeste 0 -- -- 82
2017-07-27 08:00:00 21.7 3 Sur 6 Sur 0 -- -- 83
2017-07-27 07:00:00 21.4 2 Sudeste 7 Sudeste 0 -- -- 84
2017-07-27 06:00:00 21.9 4 Sur 10 Sur 0 -- -- 80
2017-07-27 05:00:00 22.3 6 Sur 12 Sur 0 -- -- 79
2017-07-27 04:00:00 23.2 7 Este 13 Sudeste 0 -- -- 79
2017-07-27 03:00:00 23.9 9 Este 17 Sudeste 0 -- -- 75
2017-07-27 02:00:00 24.6 9 Sudeste 15 Sudeste 0 -- -- 71
2017-07-27 01:00:00 25.3 8 Sudeste 16 Sur 0 -- -- 69
2017-07-27 00:00:00 26 8 Sudeste 17 Sudeste 0 -- -- 66
2017-07-26 23:00:00 27.1 12 Sudeste 19 Sudeste 0 -- -- 63
2017-07-26 22:00:00 28.8 10 Sudeste 27 Sudeste 0 -- -- 57
2017-07-26 21:00:00 30.4 17 Sudeste 37 Sudeste 0 -- -- 49
2017-07-26 20:00:00 32.4 19 Sudeste 41 Sudeste 0 -- -- 41
2017-07-26 19:00:00 34.4 22 Sudeste 40 Sudeste 0 -- -- 37
2017-07-26 18:00:00 36.4 8 Sudeste 16 Este 0 -- -- 23
2017-07-26 17:00:00 35.6 9 Este 16 Nordeste 0 -- -- 25
2017-07-26 16:00:00 35.2 6 Norte 18 Este 0 -- -- 27
2017-07-26 15:00:00 34.4 9 Nordeste 20 Nordeste 0 -- -- 30
2017-07-26 14:00:00 33.1 7 Nordeste 14 Nordeste 0 -- -- 33
2017-07-26 13:00:00 31.4 5 Este 14 Nordeste 0 -- -- 44
2017-07-26 12:00:00 29.3 6 Sudeste 11 Sur 0 -- -- 48
2017-07-26 11:00:00 27.5 6 Nordeste 11 Este 0 -- -- 57
2017-07-26 10:00:00 25.9 5 Este 12 Este 0 -- -- 62
2017-07-26 09:00:00 23.3 3 Nordeste 6 Nordeste 0 -- -- 75
2017-07-26 08:00:00 22.5 4 Nordeste 6 Nordeste 0 -- -- 76
2017-07-26 07:00:00 22.2 3 Nordeste 8 Nordeste 0 -- -- 77
2017-07-26 06:00:00 22.4 4 Nordeste 9 Nordeste 0 -- -- 78
2017-07-26 05:00:00 22.5 3 Nordeste 8 Nordeste 0 -- -- 79
2017-07-26 04:00:00 22.7 3 Nordeste 10 Este 0 -- -- 78
2017-07-26 03:00:00 22.7 2 Norte 6 Nordeste 0 -- -- 79
2017-07-26 02:00:00 22.7 4 Nordeste 12 Este 0 -- -- 79
2017-07-26 01:00:00 23.4 2 Este 19 Sudeste 0 -- -- 75
2017-07-26 00:00:00 24 9 Sudeste 20 Sudeste 0 -- -- 71
2017-07-25 23:00:00 24.8 11 Sudeste 21 Este 0 -- -- 69
2017-07-25 22:00:00 26.1 10 Sudeste 31 Sudeste 0 -- -- 64
2017-07-25 21:00:00 28.3 19 Sudeste 37 Sudeste 0 -- -- 56
2017-07-25 20:00:00 29.8 22 Sudeste 36 Sudeste 0 -- -- 51
2017-07-25 19:00:00 30.6 20 Sudeste 33 Este 0 -- -- 48
2017-07-25 18:00:00 31.4 18 Sudeste 36 Sudeste 0 -- -- 45
2017-07-25 17:00:00 31.8 19 Sudeste 31 Sudeste 0 -- -- 43
2017-07-25 16:00:00 31.7 18 Sudeste 33 Sudeste 0 -- -- 44
2017-07-25 15:00:00 31.7 17 Sudeste 31 Sudeste 0 -- -- 42
2017-07-25 14:00:00 30.8 13 Sudeste 26 Sudeste 0 -- -- 44
2017-07-25 13:00:00 29.7 12 Sudeste 25 Sudeste 0 -- -- 46
2017-07-25 12:00:00 28.4 9 Sudeste 19 Sudeste 0 -- -- 52
2017-07-25 11:00:00 27.3 5 Este 13 Sudeste 0 -- -- 56
2017-07-25 10:00:00 26 3 Este 7 Nordeste 0 -- -- 59
2017-07-25 09:00:00 22.9 5 Noroeste 9 Noroeste 0 -- -- 63
2017-07-25 08:00:00 21.1 4 Sur 6 Sur 0 -- -- 67
2017-07-25 07:00:00 20.4 2 Nordeste 8 Sur 0 -- -- 70
2017-07-25 06:00:00 21.4 5 Oeste 7 Sudoeste 0 -- -- 70
2017-07-25 05:00:00 21.6 0 Calma 6 Sudeste 0 -- -- 69
2017-07-25 04:00:00 23 5 Sudeste 10 Sur 0 -- -- 68
2017-07-25 03:00:00 23.4 4 Sur 12 Sudeste 0 -- -- 64
2017-07-25 02:00:00 24 6 Sudeste 12 Sudeste 0 -- -- 57
2017-07-25 01:00:00 24.7 9 Sudeste 17 Sudeste 0 -- -- 56
2017-07-25 00:00:00 25.5 11 Sudeste 22 Sudeste 0 -- -- 55
2017-07-24 23:00:00 26.4 3 Sudeste 15 Sudeste 0 -- -- 54
2017-07-24 22:00:00 28.5 12 Sudeste 27 Sudeste 0 -- -- 49
2017-07-24 21:00:00 30.2 15 Sudeste 36 Sudeste 0 -- -- 43
2017-07-24 20:00:00 31.9 20 Sudeste 41 Sudeste 0 -- -- 41
2017-07-24 19:00:00 33.9 23 Sudeste 34 Sudeste 0 -- -- 38
2017-07-24 18:00:00 36 19 Sudeste 36 Sudeste 0 -- -- 26
2017-07-24 17:00:00 36.9 16 Sudeste 31 Sudeste 0 -- -- 23
2017-07-24 16:00:00 36.8 14 Sudeste 30 Sudeste 0 -- -- 23
2017-07-24 15:00:00 37 12 Sudeste 21 Sudeste 0 -- -- 19
2017-07-24 14:00:00 35.8 6 Este 17 Este 0 -- -- 21
2017-07-24 13:00:00 33.5 9 Nordeste 17 Nordeste 0 -- -- 29
2017-07-24 12:00:00 31.3 6 Nordeste 10 Este 0 -- -- 35
2017-07-24 11:00:00 28.5 5 Este 9 Este 0 -- -- 38
2017-07-24 10:00:00 25.4 3 Este 9 Noroeste 0 -- -- 56
2017-07-24 09:00:00 21.4 5 Noroeste 10 Noroeste 0 -- -- 67
2017-07-24 08:00:00 20 4 Sudeste 5 Sudeste 0 -- -- 71
2017-07-24 07:00:00 18.6 0 Calma 10 Sur 0 -- -- 76
2017-07-24 06:00:00 19.7 4 Sur 11 Sur 0 -- -- 73
2017-07-24 05:00:00 20.2 6 Sur 9 Sur 0 -- -- 71
2017-07-24 04:00:00 20.9 0 Calma 8 Oeste 0 -- -- 74
2017-07-24 03:00:00 22.2 6 Oeste 8 Oeste 0 -- -- 73
2017-07-24 02:00:00 23.4 4 Sudeste 11 Sudeste 0 -- -- 66
2017-07-24 01:00:00 23.9 3 Sudeste 10 Este 0 -- -- 66
2017-07-24 00:00:00 25.6 7 Este 20 Sudeste 0 -- -- 54
2017-07-23 23:00:00 27.2 13 Sudeste 31 Sudeste 0 -- -- 46
2017-07-23 22:00:00 28.7 18 Sudeste 34 Sudeste 0 -- -- 45
2017-07-23 21:00:00 30.7 21 Sudeste 36 Sudeste 0 -- -- 44
2017-07-23 20:00:00 33.1 17 Sudeste 29 Sudeste 0 -- -- 36
2017-07-23 19:00:00 34.5 14 Sudeste 25 Sudeste 0 -- -- 32
2017-07-23 18:00:00 35 10 Sudeste 26 Sudeste 0 -- -- 30
2017-07-23 17:00:00 35 11 Sudeste 27 Sudeste 0 -- -- 29
2017-07-23 16:00:00 33.9 11 Este 28 Sudeste 0 -- -- 31
2017-07-23 15:00:00 33.2 12 Sudeste 25 Sur 0 -- -- 33
2017-07-23 14:00:00 32.1 10 Sudeste 18 Este 0 -- -- 34
2017-07-23 13:00:00 30.3 6 Nordeste 15 Nordeste 0 -- -- 45
2017-07-23 12:00:00 29.1 6 Nordeste 15 Este 0 -- -- 50
2017-07-23 11:00:00 27.9 6 Norte 12 Este 0 -- -- 54
2017-07-23 10:00:00 26 4 Este 7 Sudeste 0 -- -- 60
2017-07-23 09:00:00 23.5 5 Sudeste 11 Sudeste 0 -- -- 68
2017-07-23 08:00:00 21.5 6 Sudeste 9 Sudeste 0 -- -- 74
2017-07-23 07:00:00 21.4 3 Norte 12 Sur 0 -- -- 75
2017-07-23 06:00:00 21.7 6 Sudeste 11 Sur 0 -- -- 73
2017-07-23 05:00:00 21.8 6 Sur 10 Sur 0 -- -- 74
2017-07-23 04:00:00 21.5 2 Este 14 Norte 0 -- -- 75
2017-07-23 03:00:00 22.1 5 Noroeste 10 Noroeste 0 -- -- 71
2017-07-23 02:00:00 23.2 3 Nordeste 20 Sudeste 0 -- -- 71
2017-07-23 01:00:00 24.3 12 Sudeste 20 Sudeste 0 -- -- 67
2017-07-23 00:00:00 25.6 5 Sudeste 17 Sur 0 -- -- 62
2017-07-22 23:00:00 26.8 11 Sudeste 29 Sudeste 0 -- -- 55
2017-07-22 22:00:00 28.3 16 Sudeste 35 Sudeste 0 -- -- 54
2017-07-22 21:00:00 29.8 19 Sudeste 32 Sudeste 0 -- -- 51
2017-07-22 20:00:00 31.8 14 Sudeste 34 Sudeste 0 -- -- 44
2017-07-22 19:00:00 33.2 14 Sudeste 27 Este 0 -- -- 38
2017-07-22 18:00:00 34.3 8 Este 22 Este 0 -- -- 34
2017-07-22 17:00:00 33.8 11 Este 25 Este 0 -- -- 33
2017-07-22 16:00:00 34.4 8 Sudeste 27 Sudeste 0 -- -- 32
2017-07-22 15:00:00 33.3 11 Este 30 Sudeste 0 -- -- 36
2017-07-22 14:00:00 33 8 Este 20 Este 0 -- -- 38
2017-07-22 13:00:00 31.4 10 Nordeste 26 Sudoeste 0 -- -- 40
2017-07-22 12:00:00 29.8 5 Este 16 Este 0 -- -- 46
2017-07-22 11:00:00 28.4 5 Nordeste 9 Este 0 -- -- 50
2017-07-22 10:00:00 26.3 4 Norte 9 Norte 0 -- -- 56
2017-07-22 09:00:00 23.6 5 Sudeste 9 Sur 0 -- -- 63
2017-07-22 08:00:00 21.6 5 Sur 11 Sudoeste 0 -- -- 69
2017-07-22 07:00:00 21.1 6 Sur 9 Sur 0 -- -- 70
2017-07-22 06:00:00 21.5 3 Oeste 11 Oeste 0 -- -- 70
2017-07-22 05:00:00 21.6 10 Oeste 13 Oeste 0 -- -- 70
2017-07-22 04:00:00 23.3 2 Este 6 Sudeste 0 -- -- 66
2017-07-22 03:00:00 23.7 4 Sudeste 14 Sur 0 -- -- 62
2017-07-22 02:00:00 24.4 7 Sur 12 Sur 0 -- -- 60
2017-07-22 01:00:00 24.8 8 Sudeste 13 Sudeste 0 -- -- 59
2017-07-22 00:00:00 25.6 9 Sudeste 15 Sudeste 0 -- -- 57
2017-07-21 23:00:00 26.8 9 Sudeste 24 Sudeste 0 -- -- 55
2017-07-21 22:00:00 28 14 Sudeste 32 Sudeste 0 -- -- 56
2017-07-21 21:00:00 29.1 20 Sudeste 33 Sudeste 0 -- -- 53
2017-07-21 20:00:00 30.3 23 Sudeste 36 Sudeste 0 -- -- 50
2017-07-21 19:00:00 32 20 Sudeste 38 Sudeste 0 -- -- 46
2017-07-21 18:00:00 33.6 14 Sudeste 31 Sudeste 0 -- -- 36
2017-07-21 17:00:00 34.1 8 Este 26 Nordeste 0 -- -- 35
2017-07-21 16:00:00 33.4 9 Este 23 Este 0 -- -- 37
2017-07-21 15:00:00 32.5 13 Nordeste 24 Nordeste 0 -- -- 39
2017-07-21 14:00:00 31.7 11 Sudeste 19 Sur 0 -- -- 38
2017-07-21 13:00:00 30.2 7 Sudeste 22 Sudeste 0 -- -- 46
2017-07-21 12:00:00 28.3 6 Este 13 Sudeste 0 -- -- 51
2017-07-21 11:00:00 27.3 8 Sudeste 15 Sudeste 0 -- -- 55
2017-07-21 10:00:00 26.2 5 Este 10 Este 0 -- -- 65
2017-07-21 09:00:00 23.4 2 Sur 8 Sudeste 0 -- -- 78
2017-07-21 08:00:00 22.6 4 Sudeste 6 Sudeste 0 -- -- 79
2017-07-21 07:00:00 22.1 4 Oeste 9 Oeste 0 -- -- 84
2017-07-21 06:00:00 22 6 Noroeste 8 Noroeste 0 -- -- 85
2017-07-21 05:00:00 22.5 0 Calma 8 Sudeste 0 -- -- 80
2017-07-21 04:00:00 23.1 4 Sudeste 13 Sudeste 0 -- -- 79
2017-07-21 03:00:00 23.5 8 Sudeste 13 Sudeste 0 -- -- 80
2017-07-21 02:00:00 23.7 7 Sudeste 12 Sur 0 -- -- 78
2017-07-21 01:00:00 24.4 7 Sudeste 13 Sur 0 -- -- 75
2017-07-21 00:00:00 25.2 7 Sudeste 15 Sudeste 0 -- -- 71
2017-07-20 23:00:00 26.2 10 Sudeste 18 Este 0 -- -- 66
2017-07-20 22:00:00 27 12 Este 29 Sudeste 0 -- -- 60
2017-07-20 21:00:00 28.6 16 Sudeste 39 Sudeste 0 -- -- 53
2017-07-20 20:00:00 30.1 22 Sudeste 42 Sudeste 0 -- -- 47
2017-07-20 19:00:00 31.3 27 Sudeste 47 Sudeste 0 -- -- 43
2017-07-20 18:00:00 32.2 24 Sudeste 49 Sudeste 0 -- -- 39
2017-07-20 17:00:00 33.1 23 Sudeste 49 Sudeste 0 -- -- 38
2017-07-20 16:00:00 35.8 14 Sudeste 29 Sudeste 0 -- -- 30
2017-07-20 15:00:00 35.2 10 Sudeste 19 Sudeste 0 -- -- 21
2017-07-20 14:00:00 35 5 Sur 14 Norte 0 -- -- 23
2017-07-20 13:00:00 33.7 5 Nordeste 15 Nordeste 0 -- -- 25
2017-07-20 12:00:00 32.6 7 Nordeste 14 Nordeste 0 -- -- 28
2017-07-20 11:00:00 30.7 6 Norte 21 Noroeste 0 -- -- 32
2017-07-20 10:00:00 29.1 11 Norte 24 Norte 0 -- -- 34
2017-07-20 09:00:00 25.9 3 Norte 8 Noroeste 0 -- -- 48
2017-07-20 08:00:00 22.6 3 Sudoeste 8 Sudoeste 0 -- -- 66
2017-07-20 07:00:00 21 6 Sur 9 Sur 0 -- -- 79
2017-07-20 06:00:00 21.7 5 Sur 7 Sur 0 -- -- 78
2017-07-20 05:00:00 21.7 3 Noroeste 7 Sur 0 -- -- 80
2017-07-20 04:00:00 22.9 5 Sur 9 Sur 0 -- -- 75
2017-07-20 03:00:00 23.7 3 Sur 4 Sur 0 -- -- 76
2017-07-20 02:00:00 24.2 0 Calma 6 Nordeste 0 -- -- 77
2017-07-20 01:00:00 24.6 4 Nordeste 7 Nordeste 0 -- -- 75
2017-07-20 00:00:00 26.1 4 Este 18 Sudeste 0 -- -- 68
2017-07-19 23:00:00 27.1 10 Sudeste 22 Sudeste 0 -- -- 64
2017-07-19 22:00:00 28 15 Sudeste 28 Sudeste 0 -- -- 61
2017-07-19 21:00:00 29.7 19 Sudeste 31 Sudeste 0 -- -- 56
2017-07-19 20:00:00 32.1 18 Sudeste 35 Sudeste 0 -- -- 48
2017-07-19 19:00:00 33.7 20 Sudeste 35 Sudeste 0 -- -- 44
2017-07-19 18:00:00 34.9 18 Sudeste 33 Sudeste 0 -- -- 35
2017-07-19 17:00:00 35.6 15 Sudeste 27 Sudeste 0 -- -- 33
2017-07-19 16:00:00 34.9 8 Nordeste 22 Este 0 -- -- 28
2017-07-19 15:00:00 34.6 8 Nordeste 19 Nordeste 0 -- -- 27
2017-07-19 14:00:00 33.7 10 Nordeste 22 Nordeste 0 -- -- 26
2017-07-19 13:00:00 32.5 9 Nordeste 19 Nordeste 0 -- -- 27
2017-07-19 12:00:00 31.4 9 Este 15 Sudeste 0 -- -- 25
2017-07-19 11:00:00 29.5 4 Este 10 Este 0 -- -- 29
2017-07-19 10:00:00 26.7 4 Norte 8 Nordeste 0 -- -- 40
2017-07-19 09:00:00 23.7 5 Noroeste 10 Oeste 0 -- -- 45
2017-07-19 08:00:00 21.8 3 Sudoeste 9 Sudoeste 0 -- -- 47
2017-07-19 07:00:00 21.5 4 Norte 12 Sur 0 -- -- 47
2017-07-19 06:00:00 22.7 6 Sudoeste 12 Sur 0 -- -- 45
2017-07-19 05:00:00 23.3 3 Oeste 12 Oeste 0 -- -- 43
2017-07-19 04:00:00 24.2 4 Sudeste 15 Sudeste 0 -- -- 43
2017-07-19 03:00:00 24.3 5 Sudeste 15 Sudeste 0 -- -- 52
2017-07-19 02:00:00 24.7 3 Este 26 Sudeste 0 -- -- 50
2017-07-19 01:00:00 24.7 8 Sudeste 14 Sudeste 0 -- -- 51
2017-07-19 00:00:00 25.3 8 Sudeste 21 Sur 0 -- -- 52